Time;durP1;ratioP1;P1;durP2;ratioP2;P2;SDS_P1;SDS_P2;PMS_P1;PMS_P2;Temp;Humidity;BMP_temperature;BMP_pressure;BME280_temperature;BME280_humidity;BME280_pressure;Samples;Min_cycle;Max_cycle;Signal;HPM_P1;HPM_P2
2023/01/05 00:01:25;;;;;;;11.63;1.63;;;11.40;99.90;;;;;;4207137;28;20220;-81
2023/01/05 00:03:27;;;;;;;7.47;1.73;;;11.40;99.90;;;;;;4199797;28;20202;-81
2023/01/05 00:05:30;;;;;;;7.50;1.53;;;11.40;99.90;;;;;;4204725;28;20231;-80
2023/01/05 00:07:32;;;;;;;10.50;1.70;;;11.50;99.90;;;;;;4205248;28;20258;-81
2023/01/05 00:09:34;;;;;;;6.53;1.40;;;11.50;99.90;;;;;;4200046;28;20233;-81
2023/01/05 00:23:21;;;;;;;7.20;1.40;;;11.40;99.90;;;;;;4201825;28;20216;-81
2023/01/05 00:25:25;;;;;;;12.27;1.93;;;11.40;99.90;;;;;;4204435;28;20633;-82
2023/01/05 00:27:27;;;;;;;5.80;1.33;;;11.40;99.90;;;;;;4204229;28;20209;-82
2023/01/05 00:29:29;;;;;;;6.07;1.40;;;11.50;99.90;;;;;;4204297;28;20244;-82
2023/01/05 00:31:31;;;;;;;12.93;1.80;;;11.50;99.90;;;;;;4201417;28;20213;-81
2023/01/05 00:33:33;;;;;;;9.40;1.60;;;11.40;99.90;;;;;;4200093;28;20205;-80
2023/01/05 00:35:35;;;;;;;9.20;1.77;;;11.40;99.90;;;;;;4198589;28;20201;-81
2023/01/05 00:37:38;;;;;;;3.63;1.00;;;11.30;99.90;;;;;;4198590;28;20407;-81
2023/01/05 00:39:40;;;;;;;8.23;1.70;;;11.20;99.90;;;;;;4202554;28;20229;-81
2023/01/05 00:41:46;;;;;;;5.50;1.27;;;11.10;99.90;;;;;;4201770;28;20193;-80
2023/01/05 00:43:47;;;;;;;8.53;1.77;;;11.00;99.90;;;;;;4204484;28;20208;-81
2023/01/05 00:45:49;;;;;;;6.53;1.30;;;10.90;99.90;;;;;;4202921;28;20221;-81
2023/01/05 00:47:52;;;;;;;6.47;1.30;;;10.90;99.90;;;;;;4204620;28;20270;-81
2023/01/05 00:49:56;;;;;;;8.60;2.47;;;10.80;99.90;;;;;;4203273;28;20262;-81
2023/01/05 00:51:58;;;;;;;13.77;1.50;;;10.80;99.90;;;;;;4205161;28;20205;-81
2023/01/05 00:54:01;;;;;;;10.53;1.50;;;10.80;99.90;;;;;;4204268;28;20202;-81
2023/01/05 00:56:03;;;;;;;8.23;1.40;;;10.80;99.90;;;;;;4202265;28;20286;-81
2023/01/05 00:58:05;;;;;;;11.80;2.00;;;10.80;99.90;;;;;;4199822;28;20215;-80
2023/01/05 01:00:12;;;;;;;12.17;1.50;;;10.80;99.90;;;;;;4205188;28;20231;-81
2023/01/05 01:02:14;;;;;;;7.70;1.57;;;10.90;99.90;;;;;;4205002;28;20199;-80
2023/01/05 01:04:18;;;;;;;6.33;1.50;;;10.80;99.90;;;;;;4197042;28;20217;-81
2023/01/05 01:06:20;;;;;;;9.17;1.20;;;10.90;99.90;;;;;;4201599;28;20223;-81
2023/01/05 01:08:22;;;;;;;11.10;1.73;;;10.80;99.90;;;;;;4201906;28;20270;-81
2023/01/05 01:10:25;;;;;;;6.67;1.43;;;10.90;99.90;;;;;;4204959;28;20231;-81
2023/01/05 01:12:27;;;;;;;8.00;1.40;;;10.90;99.90;;;;;;4201314;28;20640;-81
2023/01/05 01:14:29;;;;;;;9.33;1.50;;;10.90;99.90;;;;;;4202867;28;20207;-80
2023/01/05 01:16:32;;;;;;;7.03;1.40;;;10.90;99.90;;;;;;4200040;28;20292;-81
2023/01/05 01:18:34;;;;;;;11.67;1.70;;;10.90;99.90;;;;;;4199606;28;20209;-81
2023/01/05 01:20:37;;;;;;;7.17;1.50;;;10.90;99.90;;;;;;4206811;28;21911;-81
2023/01/05 01:22:39;;;;;;;8.50;1.57;;;10.90;99.90;;;;;;4197240;28;20199;-80
2023/01/05 01:24:41;;;;;;;5.80;1.50;;;10.90;99.90;;;;;;4202463;28;20204;-80
2023/01/05 01:26:45;;;;;;;8.10;1.33;;;10.90;99.90;;;;;;4207968;28;20227;-81
2023/01/05 01:28:47;;;;;;;6.20;1.30;;;10.90;99.90;;;;;;4202674;28;20201;-80
2023/01/05 01:30:49;;;;;;;10.17;1.87;;;10.80;99.90;;;;;;4201290;28;20205;-81
2023/01/05 01:32:51;;;;;;;8.27;1.77;;;10.90;99.90;;;;;;4197046;28;20262;-81
2023/01/05 01:34:54;;;;;;;8.63;1.40;;;10.80;99.90;;;;;;4205248;28;20235;-81
2023/01/05 01:36:56;;;;;;;3.80;1.13;;;10.80;99.90;;;;;;4204133;28;20295;-81
2023/01/05 01:38:58;;;;;;;5.60;1.07;;;10.90;99.90;;;;;;4203912;28;20310;-81
2023/01/05 01:41:00;;;;;;;5.20;0.90;;;10.80;99.90;;;;;;4204544;28;20223;-81
2023/01/05 01:43:05;;;;;;;5.80;1.13;;;10.80;99.90;;;;;;4205861;28;20212;-81
2023/01/05 01:45:18;;;;;;;4.93;0.83;;;10.70;99.90;;;;;;4197952;28;20216;-81
2023/01/05 01:47:25;;;;;;;8.73;1.20;;;10.70;99.90;;;;;;4211078;28;20229;-81
2023/01/05 01:49:27;;;;;;;5.47;1.20;;;10.70;99.90;;;;;;4201419;28;20627;-81
2023/01/05 01:51:34;;;;;;;7.03;1.20;;;10.70;99.90;;;;;;4201333;28;20200;-81
2023/01/05 01:53:40;;;;;;;7.97;1.23;;;10.60;99.90;;;;;;4204353;28;20223;-81
2023/01/05 01:55:43;;;;;;;6.10;1.27;;;10.60;99.90;;;;;;4203430;28;20308;-80
2023/01/05 01:57:47;;;;;;;5.67;0.93;;;10.60;99.90;;;;;;4204481;28;20223;-81
2023/01/05 01:59:51;;;;;;;7.57;1.60;;;10.60;99.90;;;;;;4206966;28;20232;-81
2023/01/05 02:01:57;;;;;;;9.47;1.50;;;10.60;99.90;;;;;;4205219;28;20210;-81
2023/01/05 02:04:00;;;;;;;8.93;2.47;;;10.50;99.90;;;;;;4205632;28;20212;-81
2023/01/05 02:06:02;;;;;;;10.53;1.83;;;10.60;99.90;;;;;;4205559;28;20302;-80
2023/01/05 02:08:09;;;;;;;5.77;1.10;;;10.60;99.90;;;;;;4205103;28;20684;-79
2023/01/05 02:10:12;;;;;;;7.73;1.30;;;10.60;99.90;;;;;;4204429;28;20327;-81
2023/01/05 02:12:26;;;;;;;11.67;1.77;;;10.60;99.90;;;;;;4206884;28;20212;-80
2023/01/05 02:14:36;;;;;;;8.50;1.53;;;10.50;99.90;;;;;;4201736;28;20251;-81
2023/01/05 02:16:58;;;;;;;9.17;1.40;;;10.50;99.90;;;;;;4201245;28;20649;-81
2023/01/05 02:19:26;;;;;;;6.10;1.60;;;10.50;99.90;;;;;;4196726;28;20215;-80
2023/01/05 02:21:40;;;;;;;8.60;1.70;;;10.50;99.90;;;;;;4199943;28;20295;-81
2023/01/05 02:24:18;;;;;;;10.70;1.57;;;10.50;99.90;;;;;;4197887;28;20603;-80
2023/01/05 02:26:45;;;;;;;8.63;1.37;;;10.60;99.90;;;;;;4198120;28;20235;-80
2023/01/05 02:29:07;;;;;;;11.60;1.87;;;10.60;99.90;;;;;;4198766;28;20204;-80
2023/01/05 02:31:14;;;;;;;7.63;1.90;;;10.50;99.90;;;;;;4208291;28;20281;-80
2023/01/05 02:33:26;;;;;;;9.47;1.80;;;10.60;99.90;;;;;;4212428;28;20636;-81
2023/01/05 02:35:39;;;;;;;9.03;1.83;;;10.60;99.90;;;;;;4204865;28;20211;-81
2023/01/05 02:37:45;;;;;;;6.97;1.63;;;10.60;99.90;;;;;;4207142;28;20223;-81
2023/01/05 02:39:53;;;;;;;11.27;1.47;;;10.60;99.90;;;;;;4200965;28;20236;-80
2023/01/05 02:41:58;;;;;;;9.20;1.70;;;10.60;99.90;;;;;;4214181;28;20246;-81
2023/01/05 02:44:01;;;;;;;7.10;1.33;;;10.60;99.90;;;;;;4219788;28;20211;-81
2023/01/05 02:46:03;;;;;;;10.43;1.83;;;10.60;99.90;;;;;;4215667;28;20274;-81
2023/01/05 02:48:07;;;;;;;8.20;1.73;;;10.60;99.90;;;;;;4218323;28;20223;-81
2023/01/05 02:50:14;;;;;;;7.53;1.60;;;10.60;99.90;;;;;;4217048;28;20243;-81
2023/01/05 02:52:17;;;;;;;8.10;1.87;;;10.60;99.90;;;;;;4215653;28;20253;-81
2023/01/05 02:54:24;;;;;;;7.67;1.70;;;10.60;99.90;;;;;;4212208;28;20216;-80
2023/01/05 02:56:31;;;;;;;9.83;1.50;;;10.60;99.90;;;;;;4212371;28;20232;-80
2023/01/05 02:58:38;;;;;;;9.33;1.77;;;10.60;99.90;;;;;;4212384;28;20249;-80
2023/01/05 03:00:44;;;;;;;15.43;2.10;;;10.60;99.90;;;;;;4201576;28;20216;-81
2023/01/05 03:02:48;;;;;;;17.07;1.87;;;10.60;99.90;;;;;;4201623;28;20221;-80
2023/01/05 03:04:56;;;;;;;12.70;2.03;;;10.40;99.90;;;;;;4201494;28;20200;-80
2023/01/05 03:07:02;;;;;;;15.07;2.33;;;10.10;99.90;;;;;;4204857;28;20246;-81
2023/01/05 03:09:06;;;;;;;18.30;2.40;;;9.90;99.90;;;;;;4202912;28;20229;-81
2023/01/05 03:13:42;;;;;;;13.90;2.47;;;9.50;99.90;;;;;;4199100;28;20210;-81
2023/01/05 03:15:46;;;;;;;11.77;1.83;;;9.40;99.90;;;;;;4208532;28;20261;-81
2023/01/05 03:17:50;;;;;;;9.87;2.37;;;9.30;99.90;;;;;;4201029;28;20207;-80
2023/01/05 03:19:55;;;;;;;16.23;2.23;;;9.20;99.90;;;;;;4204310;28;20260;-82
2023/01/05 03:36:21;;;;;;;9.13;1.87;;;9.00;99.90;;;;;;4204556;28;20222;-80
2023/01/05 03:38:29;;;;;;;15.43;2.13;;;8.90;99.90;;;;;;4197966;28;20224;-79
2023/01/05 03:40:33;;;;;;;18.00;2.57;;;8.90;99.90;;;;;;4203101;28;20223;-81
2023/01/05 03:42:37;;;;;;;15.10;2.50;;;8.90;99.90;;;;;;4198485;28;20677;-80
2023/01/05 03:44:41;;;;;;;17.63;2.90;;;8.90;99.90;;;;;;4205939;28;20201;-79
2023/01/05 03:46:43;;;;;;;17.37;2.93;;;8.80;99.90;;;;;;4205518;28;20304;-79
2023/01/05 03:48:45;;;;;;;9.80;1.93;;;8.80;99.90;;;;;;4208659;28;20201;-80
2023/01/05 03:50:48;;;;;;;17.67;2.67;;;8.80;99.90;;;;;;4201253;28;20479;-80
2023/01/05 03:52:51;;;;;;;16.43;2.60;;;8.80;99.90;;;;;;4200849;28;20451;-80
2023/01/05 03:54:53;;;;;;;9.77;2.77;;;8.80;99.90;;;;;;4195591;28;20213;-80
2023/01/05 03:56:55;;;;;;;14.03;2.27;;;8.80;99.90;;;;;;4198504;28;20855;-79
2023/01/05 03:58:57;;;;;;;16.87;2.67;;;8.70;99.90;;;;;;4199630;28;20205;-81
2023/01/05 04:00:59;;;;;;;12.67;2.70;;;8.70;99.90;;;;;;4200200;28;20335;-80
2023/01/05 04:03:00;;;;;;;16.50;2.60;;;8.80;99.90;;;;;;4203673;28;20241;-80
2023/01/05 04:05:02;;;;;;;13.43;2.40;;;8.80;99.90;;;;;;4197855;28;20205;-81
2023/01/05 04:07:06;;;;;;;14.87;2.00;;;8.80;99.90;;;;;;4203918;28;20480;-80
2023/01/05 04:09:09;;;;;;;18.37;3.00;;;8.80;99.90;;;;;;4205005;28;20455;-80
2023/01/05 04:11:14;;;;;;;11.77;2.80;;;8.70;99.90;;;;;;4201063;28;20209;-80
2023/01/05 04:13:16;;;;;;;18.17;2.47;;;8.70;99.90;;;;;;4202085;28;20765;-81
2023/01/05 04:15:18;;;;;;;13.03;2.40;;;8.70;99.90;;;;;;4199814;28;20225;-81
2023/01/05 04:17:20;;;;;;;11.37;2.53;;;8.70;99.90;;;;;;4198853;28;20447;-80
2023/01/05 04:19:22;;;;;;;14.73;3.17;;;8.70;99.90;;;;;;4207493;28;20229;-81
2023/01/05 04:21:24;;;;;;;11.97;2.20;;;8.70;99.90;;;;;;4205796;28;20292;-81
2023/01/05 04:23:26;;;;;;;10.73;2.20;;;8.70;99.90;;;;;;4204909;28;20213;-80
2023/01/05 04:25:29;;;;;;;12.00;2.37;;;8.70;99.90;;;;;;4201187;28;20233;-80
2023/01/05 04:27:31;;;;;;;9.07;1.77;;;8.70;99.90;;;;;;4202835;28;20264;-80
2023/01/05 04:29:33;;;;;;;8.03;2.40;;;8.80;99.90;;;;;;4203084;28;20612;-81
2023/01/05 04:31:35;;;;;;;10.17;2.00;;;8.80;99.90;;;;;;4204230;28;20209;-81
2023/01/05 04:33:38;;;;;;;8.90;2.03;;;8.70;99.90;;;;;;4201935;28;20292;-80
2023/01/05 04:35:41;;;;;;;10.03;2.07;;;8.70;99.90;;;;;;4203325;28;20232;-81
2023/01/05 04:37:42;;;;;;;11.17;2.40;;;8.60;99.90;;;;;;4197092;28;20737;-80
2023/01/05 04:39:44;;;;;;;9.50;1.93;;;8.60;99.90;;;;;;4202050;28;20736;-80
2023/01/05 04:41:49;;;;;;;12.10;2.53;;;8.60;99.90;;;;;;4211152;28;20247;-80
2023/01/05 04:43:51;;;;;;;11.03;2.77;;;8.50;99.90;;;;;;4203484;28;20206;-80
2023/01/05 04:45:53;;;;;;;13.87;3.43;;;8.50;99.90;;;;;;4203155;28;20209;-81
2023/01/05 04:47:55;;;;;;;11.63;2.13;;;8.50;99.90;;;;;;4212319;28;20476;-80
2023/01/05 04:49:56;;;;;;;8.33;2.20;;;8.50;99.90;;;;;;4203889;28;20792;-81
2023/01/05 04:51:58;;;;;;;11.87;2.20;;;8.50;99.90;;;;;;4202852;28;20648;-81
2023/01/05 04:54:00;;;;;;;9.90;2.17;;;8.50;99.90;;;;;;4204312;28;20266;-80
2023/01/05 04:56:02;;;;;;;9.23;1.90;;;8.50;99.90;;;;;;4207616;28;20199;-81
2023/01/05 04:58:05;;;;;;;13.53;2.73;;;8.50;99.90;;;;;;4201415;28;20209;-82
2023/01/05 05:00:10;;;;;;;12.13;2.60;;;8.50;99.90;;;;;;4211356;28;20254;-81
2023/01/05 05:02:12;;;;;;;10.83;2.20;;;8.50;99.90;;;;;;4200088;28;20214;-81
2023/01/05 05:04:14;;;;;;;9.03;2.13;;;8.50;99.90;;;;;;4198211;28;20203;-79
2023/01/05 05:06:16;;;;;;;13.40;2.73;;;8.50;99.90;;;;;;4203800;28;20206;-80
2023/01/05 05:08:18;;;;;;;12.57;2.03;;;8.50;99.90;;;;;;4209396;28;20715;-80
2023/01/05 05:10:20;;;;;;;14.50;2.97;;;8.50;99.90;;;;;;4208874;28;20320;-80
2023/01/05 05:12:22;;;;;;;14.43;2.60;;;8.50;99.90;;;;;;4200174;28;20255;-81
2023/01/05 05:14:25;;;;;;;13.50;2.30;;;8.60;99.90;;;;;;4203024;28;20277;-81
2023/01/05 05:16:27;;;;;;;8.47;2.40;;;8.60;99.90;;;;;;4205490;28;20216;-81
2023/01/05 05:18:29;;;;;;;14.20;2.80;;;8.60;99.90;;;;;;4209967;28;20202;-80
2023/01/05 05:20:31;;;;;;;8.37;1.90;;;8.90;99.90;;;;;;4202093;28;20234;-81
2023/01/05 05:22:33;;;;;;;13.63;2.30;;;8.60;99.90;;;;;;4206335;28;20717;-81
2023/01/05 05:24:35;;;;;;;10.60;2.73;;;8.60;99.90;;;;;;4202032;28;20214;-81
2023/01/05 05:26:37;;;;;;;9.77;2.17;;;8.60;99.90;;;;;;4208463;28;20212;-81
2023/01/05 05:28:39;;;;;;;13.83;2.50;;;8.90;99.90;;;;;;4204687;28;20783;-81
2023/01/05 05:30:42;;;;;;;15.30;2.20;;;8.70;99.90;;;;;;4210209;28;20232;-81
2023/01/05 05:32:44;;;;;;;7.37;2.30;;;8.70;99.90;;;;;;4208242;28;20675;-82
2023/01/05 05:34:46;;;;;;;12.93;2.60;;;8.90;99.90;;;;;;4205788;28;20229;-81
2023/01/05 05:36:48;;;;;;;10.37;2.37;;;8.70;99.90;;;;;;4207117;28;20206;-81
2023/01/05 05:38:50;;;;;;;13.30;2.60;;;8.60;99.90;;;;;;4202850;28;20203;-83
2023/01/05 05:40:52;;;;;;;11.77;2.10;;;8.60;99.90;;;;;;4202902;28;20286;-81
2023/01/05 05:42:54;;;;;;;14.10;3.03;;;8.60;99.90;;;;;;4203210;28;20779;-81
2023/01/05 05:44:56;;;;;;;11.30;2.03;;;8.70;99.90;;;;;;4200240;28;20257;-80
2023/01/05 05:47:00;;;;;;;12.93;2.87;;;8.60;99.90;;;;;;4196482;28;20257;-81
2023/01/05 05:49:02;;;;;;;11.53;2.60;;;8.60;99.90;;;;;;4202217;28;20312;-80
2023/01/05 05:51:04;;;;;;;16.03;3.17;;;8.60;99.90;;;;;;4205403;28;20210;-80
2023/01/05 05:53:06;;;;;;;12.20;2.70;;;8.60;99.90;;;;;;4203157;28;20218;-82
2023/01/05 05:55:09;;;;;;;10.60;2.60;;;8.70;99.90;;;;;;4204107;28;20210;-81
2023/01/05 05:57:11;;;;;;;9.30;2.07;;;8.90;99.90;;;;;;4207479;28;20197;-80
2023/01/05 05:59:13;;;;;;;8.87;2.20;;;8.60;99.90;;;;;;4207441;28;20261;-81
2023/01/05 06:01:15;;;;;;;11.47;2.60;;;8.70;99.90;;;;;;4209653;28;20255;-82
2023/01/05 06:03:18;;;;;;;9.43;2.47;;;8.70;99.90;;;;;;4211602;28;20235;-82
2023/01/05 06:05:20;;;;;;;13.33;2.53;;;8.70;99.90;;;;;;4208350;28;20234;-80
2023/01/05 06:07:22;;;;;;;9.50;2.50;;;8.70;99.90;;;;;;4202941;28;20218;-83
2023/01/05 06:09:24;;;;;;;10.80;3.10;;;8.70;99.90;;;;;;4204308;28;20229;-82
2023/01/05 06:11:26;;;;;;;13.40;2.43;;;8.70;99.90;;;;;;4206050;28;20214;-82
2023/01/05 06:13:28;;;;;;;8.20;2.10;;;8.70;99.90;;;;;;4204204;28;20208;-82
2023/01/05 06:15:30;;;;;;;11.17;2.57;;;8.70;99.90;;;;;;4201351;28;20225;-85
2023/01/05 06:17:32;;;;;;;13.57;2.27;;;8.70;99.90;;;;;;4208012;28;20664;-84
2023/01/05 06:19:36;;;;;;;14.00;2.53;;;8.70;99.90;;;;;;4205816;28;20280;-84
2023/01/05 06:21:38;;;;;;;11.00;3.03;;;8.70;99.90;;;;;;4207190;28;20229;-84
2023/01/05 06:23:39;;;;;;;14.03;2.40;;;8.70;99.90;;;;;;4199632;28;20205;-84
2023/01/05 06:25:41;;;;;;;11.20;2.20;;;8.70;99.90;;;;;;4202962;28;20620;-84
2023/01/05 06:27:44;;;;;;;9.73;2.20;;;8.70;99.90;;;;;;4204249;28;20303;-83
2023/01/05 06:29:46;;;;;;;6.23;2.07;;;8.70;99.90;;;;;;4202879;28;20221;-85
2023/01/05 06:31:48;;;;;;;9.83;2.00;;;8.80;99.90;;;;;;4206122;28;21037;-85
2023/01/05 06:33:50;;;;;;;12.07;2.17;;;8.80;99.90;;;;;;4206657;28;20197;-83
2023/01/05 06:35:53;;;;;;;8.93;2.20;;;8.70;99.90;;;;;;4207382;28;20817;-83
2023/01/05 06:37:55;;;;;;;11.27;2.43;;;8.70;99.90;;;;;;4206937;28;20221;-84
2023/01/05 06:39:57;;;;;;;10.27;2.80;;;8.80;99.90;;;;;;4216537;28;20240;-83
2023/01/05 06:41:59;;;;;;;12.97;2.50;;;8.80;99.90;;;;;;4209122;28;20205;-86
2023/01/05 06:44:01;;;;;;;11.77;2.10;;;8.70;99.90;;;;;;4207429;28;20206;-84
2023/01/05 06:46:03;;;;;;;10.63;2.30;;;8.80;99.90;;;;;;4205835;28;20673;-83
2023/01/05 06:48:06;;;;;;;9.57;2.20;;;9.10;99.90;;;;;;4205818;28;20229;-84
2023/01/05 06:50:08;;;;;;;12.93;2.60;;;8.80;99.90;;;;;;4205314;28;20784;-84
2023/01/05 06:52:12;;;;;;;7.00;2.27;;;8.80;99.90;;;;;;4205688;28;20282;-85
2023/01/05 06:54:14;;;;;;;14.90;2.33;;;8.90;99.90;;;;;;4210945;28;20198;-84
2023/01/05 06:56:16;;;;;;;11.90;2.20;;;8.80;99.90;;;;;;4206286;28;20204;-84
2023/01/05 06:58:18;;;;;;;9.10;2.27;;;8.90;99.90;;;;;;4201617;28;20206;-84
2023/01/05 07:00:20;;;;;;;15.87;3.00;;;8.80;99.90;;;;;;4200330;28;20230;-84
2023/01/05 07:02:22;;;;;;;17.30;3.60;;;8.90;99.90;;;;;;4201553;28;20290;-83
2023/01/05 07:04:25;;;;;;;13.87;3.10;;;8.90;99.90;;;;;;4201206;28;20211;-85
2023/01/05 07:06:27;;;;;;;11.17;3.30;;;8.90;99.90;;;;;;4201116;28;20200;-83
2023/01/05 07:08:30;;;;;;;17.47;3.20;;;8.80;99.90;;;;;;4200386;28;20614;-85
2023/01/05 07:10:32;;;;;;;8.10;2.53;;;8.80;99.90;;;;;;4200708;28;20250;-84
2023/01/05 07:12:35;;;;;;;11.50;3.10;;;8.90;99.90;;;;;;4204272;28;20568;-84
2023/01/05 07:14:37;;;;;;;10.43;2.70;;;8.90;99.90;;;;;;4201898;28;20234;-84
2023/01/05 07:16:39;;;;;;;17.37;2.63;;;8.80;99.90;;;;;;4202047;28;20216;-84
2023/01/05 07:18:41;;;;;;;11.57;3.00;;;8.80;99.90;;;;;;4200544;28;20200;-84
2023/01/05 07:20:42;;;;;;;12.27;2.67;;;8.80;99.90;;;;;;4207682;28;20234;-85
2023/01/05 07:22:44;;;;;;;11.93;2.67;;;8.90;99.90;;;;;;4206378;28;20201;-84
2023/01/05 07:24:48;;;;;;;11.53;2.73;;;8.90;99.90;;;;;;4205006;28;20688;-84
2023/01/05 07:26:50;;;;;;;12.47;3.23;;;9.20;99.90;;;;;;4201760;28;20603;-85
2023/01/05 07:28:52;;;;;;;9.33;2.63;;;8.80;99.90;;;;;;4206761;28;20261;-84
2023/01/05 07:30:53;;;;;;;9.87;2.10;;;8.80;99.90;;;;;;4199639;28;20198;-83
2023/01/05 07:32:58;;;;;;;13.90;2.87;;;8.90;99.90;;;;;;4202644;28;20625;-83
2023/01/05 07:35:00;;;;;;;13.67;2.50;;;8.90;99.90;;;;;;4201074;28;20210;-83
2023/01/05 07:37:02;;;;;;;12.43;2.90;;;8.80;99.90;;;;;;4204008;28;20210;-84
2023/01/05 07:39:04;;;;;;;11.63;2.47;;;8.90;99.90;;;;;;4206312;28;20873;-83
2023/01/05 07:41:08;;;;;;;17.47;2.87;;;8.90;99.90;;;;;;4204145;28;20194;-84
2023/01/05 07:43:12;;;;;;;14.13;2.60;;;8.80;99.90;;;;;;4204507;28;20198;-83
2023/01/05 07:45:14;;;;;;;14.97;2.77;;;8.90;99.90;;;;;;4210061;28;20209;-83
2023/01/05 07:47:16;;;;;;;8.30;2.50;;;8.80;99.90;;;;;;4202783;28;20215;-83
2023/01/05 07:49:19;;;;;;;10.80;2.60;;;8.80;99.90;;;;;;4202191;28;20314;-83
2023/01/05 07:51:21;;;;;;;10.33;2.50;;;8.90;99.90;;;;;;4204972;28;20213;-85
2023/01/05 07:53:23;;;;;;;11.80;2.60;;;8.90;99.90;;;;;;4202966;28;20217;-83
2023/01/05 07:55:25;;;;;;;15.90;2.60;;;8.80;99.90;;;;;;4202426;28;20227;-83
2023/01/05 07:57:28;;;;;;;16.63;2.60;;;8.90;99.90;;;;;;4205409;28;20207;-82
2023/01/05 07:59:30;;;;;;;9.43;2.90;;;8.70;99.90;;;;;;4202297;28;20665;-84
2023/01/05 08:01:32;;;;;;;9.77;2.90;;;8.70;99.90;;;;;;4207036;28;20236;-83
2023/01/05 08:03:35;;;;;;;11.47;3.03;;;8.60;99.90;;;;;;4204775;28;20206;-82
2023/01/05 08:05:37;;;;;;;19.43;3.17;;;8.50;99.90;;;;;;4198319;28;20697;-83
2023/01/05 08:07:38;;;;;;;18.03;3.30;;;8.40;99.90;;;;;;4205604;28;20260;-83
2023/01/05 08:12:00;;;;;;;11.00;3.17;;;8.30;99.90;;;;;;4202503;28;20301;-82
2023/01/05 08:14:03;;;;;;;11.70;3.03;;;8.30;99.90;;;;;;4201378;28;20213;-84
2023/01/05 08:16:05;;;;;;;6.77;2.80;;;8.30;99.90;;;;;;4203192;28;20239;-83
2023/01/05 08:18:07;;;;;;;14.77;3.43;;;8.30;99.90;;;;;;4198105;28;20217;-84
2023/01/05 08:20:10;;;;;;;12.33;2.90;;;8.30;99.90;;;;;;4202396;28;20563;-84
2023/01/05 08:22:12;;;;;;;11.93;2.87;;;8.30;99.90;;;;;;4202783;28;20509;-85
2023/01/05 08:24:14;;;;;;;11.23;2.93;;;8.30;99.90;;;;;;4211949;28;20262;-84
2023/01/05 08:26:18;;;;;;;14.37;3.20;;;8.30;99.90;;;;;;4205700;28;20443;-84
2023/01/05 08:28:20;;;;;;;11.00;2.83;;;8.30;99.90;;;;;;4203119;28;20528;-81
2023/01/05 08:30:23;;;;;;;10.20;3.07;;;8.30;99.90;;;;;;4203162;28;20475;-83
2023/01/05 08:32:25;;;;;;;17.00;3.40;;;8.30;99.90;;;;;;4207636;28;20525;-81
2023/01/05 08:34:27;;;;;;;12.73;3.30;;;8.30;99.90;;;;;;4202770;28;20450;-82
2023/01/05 08:36:31;;;;;;;13.50;3.10;;;8.40;99.90;;;;;;4196827;28;20499;-82
2023/01/05 08:38:33;;;;;;;10.97;3.03;;;8.30;99.90;;;;;;4200232;28;20462;-83
2023/01/05 08:40:36;;;;;;;13.30;2.90;;;8.40;99.90;;;;;;4201248;28;20459;-82
2023/01/05 08:42:38;;;;;;;11.57;3.40;;;8.40;99.90;;;;;;4204821;28;21041;-82
2023/01/05 08:44:40;;;;;;;11.73;2.93;;;8.40;99.90;;;;;;4199936;28;20807;-82
2023/01/05 08:46:44;;;;;;;13.10;2.97;;;8.40;99.90;;;;;;4211578;28;20834;-81
2023/01/05 08:48:49;;;;;;;17.00;3.40;;;8.40;99.90;;;;;;4203492;28;20479;-82
2023/01/05 08:50:51;;;;;;;14.93;3.43;;;8.40;99.90;;;;;;4196619;28;20502;-81
2023/01/05 08:52:53;;;;;;;12.77;3.13;;;8.40;99.90;;;;;;4198655;28;20697;-82
2023/01/05 08:54:55;;;;;;;15.67;3.53;;;8.40;99.90;;;;;;4202801;28;20910;-81
2023/01/05 08:56:57;;;;;;;10.87;3.63;;;8.40;99.90;;;;;;4203912;28;20456;-83
2023/01/05 08:58:59;;;;;;;12.97;3.17;;;8.50;99.90;;;;;;4199394;28;20210;-83
2023/01/05 09:01:01;;;;;;;14.67;3.77;;;8.50;99.90;;;;;;4218989;28;20449;-83
2023/01/05 09:03:05;;;;;;;11.23;3.80;;;8.50;99.90;;;;;;4205736;28;20204;-83
2023/01/05 09:05:07;;;;;;;14.93;3.87;;;8.60;99.90;;;;;;4204498;28;20241;-84
2023/01/05 09:07:09;;;;;;;24.67;4.40;;;8.60;99.90;;;;;;4207675;28;20463;-83
2023/01/05 09:09:11;;;;;;;12.60;3.80;;;8.60;99.90;;;;;;4204808;28;20639;-85
2023/01/05 09:11:16;;;;;;;16.47;3.70;;;8.40;99.90;;;;;;4204280;28;20206;-82
2023/01/05 09:13:18;;;;;;;17.13;3.63;;;8.60;99.90;;;;;;4203881;28;20202;-83
2023/01/05 09:15:20;;;;;;;10.93;3.50;;;8.90;99.90;;;;;;4204745;28;20212;-82
2023/01/05 09:17:22;;;;;;;13.70;3.37;;;8.70;99.90;;;;;;4208668;28;20232;-82
2023/01/05 09:19:25;;;;;;;11.87;3.53;;;8.70;99.90;;;;;;4210754;28;20222;-83
2023/01/05 09:21:27;;;;;;;13.03;3.50;;;8.70;99.90;;;;;;4204288;28;20466;-83
2023/01/05 09:23:30;;;;;;;14.20;3.93;;;8.70;99.90;;;;;;4206873;28;20218;-83
2023/01/05 09:25:31;;;;;;;13.63;3.27;;;8.70;99.90;;;;;;4205854;28;20207;-83
2023/01/05 09:27:35;;;;;;;6.57;2.83;;;8.70;99.90;;;;;;4208157;28;20225;-82
2023/01/05 09:29:36;;;;;;;8.00;2.70;;;8.70;99.90;;;;;;4212943;28;20328;-83
2023/01/05 09:31:40;;;;;;;14.10;3.33;;;8.70;99.90;;;;;;4209883;28;20205;-83
2023/01/05 09:33:43;;;;;;;8.57;2.70;;;8.70;99.90;;;;;;4208427;28;20213;-82
2023/01/05 09:35:53;;;;;;;7.07;2.50;;;8.80;99.90;;;;;;4207022;28;20206;-83
2023/01/05 09:37:55;;;;;;;10.57;2.50;;;8.80;99.90;;;;;;4216325;28;20224;-82
2023/01/05 09:39:57;;;;;;;9.77;2.33;;;8.70;99.90;;;;;;4205706;28;20226;-82
2023/01/05 09:42:02;;;;;;;7.17;2.70;;;8.70;99.90;;;;;;4213056;28;20205;-81
2023/01/05 09:44:11;;;;;;;8.27;2.17;;;8.70;99.90;;;;;;4208910;28;20656;-83
2023/01/05 09:46:17;;;;;;;10.17;2.93;;;8.70;99.90;;;;;;4206653;28;20217;-83
2023/01/05 09:48:20;;;;;;;7.80;2.30;;;8.70;99.90;;;;;;4209450;28;20217;-83
2023/01/05 09:50:24;;;;;;;9.00;2.60;;;8.80;99.90;;;;;;4211498;28;21048;-82
2023/01/05 09:52:29;;;;;;;16.53;3.23;;;8.70;99.90;;;;;;4207850;28;20214;-84
2023/01/05 09:54:33;;;;;;;6.60;2.07;;;8.70;99.90;;;;;;4210357;28;20212;-83
2023/01/05 09:56:37;;;;;;;5.40;2.10;;;8.70;99.90;;;;;;4211927;28;20632;-82
2023/01/05 09:58:42;;;;;;;8.70;2.30;;;8.70;99.90;;;;;;4206023;28;20277;-83
2023/01/05 10:00:51;;;;;;;8.30;2.27;;;8.80;99.90;;;;;;4200906;28;20254;-82
2023/01/05 10:02:57;;;;;;;9.90;2.43;;;8.80;99.90;;;;;;4201016;28;20258;-82
2023/01/05 10:05:01;;;;;;;9.57;2.43;;;8.70;99.90;;;;;;4205605;28;20621;-81
2023/01/05 10:07:17;;;;;;;10.60;2.83;;;8.70;99.90;;;;;;4214414;28;20212;-84
2023/01/05 10:09:24;;;;;;;8.43;3.23;;;8.60;99.90;;;;;;4206570;28;20988;-83
2023/01/05 10:14:02;;;;;;;11.83;3.13;;;8.60;99.90;;;;;;4206974;28;20562;-82
2023/01/05 10:16:04;;;;;;;12.40;3.07;;;8.60;99.90;;;;;;4203746;28;20444;-82
2023/01/05 10:18:12;;;;;;;11.13;2.70;;;8.70;99.90;;;;;;4206125;28;20509;-80
2023/01/05 10:20:17;;;;;;;8.77;3.13;;;8.70;99.90;;;;;;4199334;28;20250;-81
2023/01/05 10:22:36;;;;;;;10.20;2.80;;;8.70;99.90;;;;;;4201152;28;20463;-80
2023/01/05 10:24:51;;;;;;;10.80;3.03;;;8.70;99.90;;;;;;4200424;28;20205;-80
2023/01/05 10:26:59;;;;;;;10.57;2.77;;;8.80;99.90;;;;;;4211295;28;20202;-80
2023/01/05 10:29:09;;;;;;;12.33;3.33;;;8.80;99.90;;;;;;4207282;28;20209;-82
2023/01/05 10:31:22;;;;;;;8.43;2.83;;;8.80;99.90;;;;;;4203475;28;20455;-79
2023/01/05 10:33:40;;;;;;;12.97;4.00;;;8.80;99.90;;;;;;4209461;28;20214;-82
2023/01/05 10:36:00;;;;;;;8.90;2.67;;;8.80;99.90;;;;;;4204937;28;20454;-81
2023/01/05 10:38:12;;;;;;;9.33;3.37;;;8.80;99.90;;;;;;4200533;28;20311;-80
2023/01/05 10:40:34;;;;;;;8.37;3.33;;;8.80;99.90;;;;;;4207091;28;20229;-82
2023/01/05 10:42:49;;;;;;;12.10;3.60;;;8.80;99.90;;;;;;4209865;28;21147;-78
2023/01/05 10:44:57;;;;;;;13.80;3.70;;;8.80;99.90;;;;;;4205576;28;20491;-81
2023/01/05 10:47:00;;;;;;;9.07;3.23;;;8.80;99.90;;;;;;4198755;28;20233;-83
2023/01/05 10:49:02;;;;;;;11.90;3.60;;;8.80;99.90;;;;;;4206050;28;20217;-81
2023/01/05 10:51:06;;;;;;;14.97;3.43;;;8.90;99.90;;;;;;4207918;28;20475;-81
2023/01/05 10:53:14;;;;;;;9.13;3.27;;;8.80;99.90;;;;;;4206274;28;20921;-79
2023/01/05 10:55:18;;;;;;;13.90;3.77;;;8.80;99.90;;;;;;4204679;28;20462;-83
2023/01/05 10:57:37;;;;;;;17.07;3.73;;;8.80;99.90;;;;;;4199382;28;20275;-77
2023/01/05 10:59:55;;;;;;;12.33;3.70;;;8.90;99.90;;;;;;4210808;28;20467;-80
2023/01/05 11:01:57;;;;;;;13.13;3.30;;;8.90;99.90;;;;;;4200424;28;20205;-79
2023/01/05 11:04:05;;;;;;;11.80;3.50;;;9.00;99.90;;;;;;4210823;28;20259;-78
2023/01/05 11:06:09;;;;;;;10.13;3.77;;;9.00;99.90;;;;;;4212715;28;20244;-78
2023/01/05 11:08:16;;;;;;;10.50;3.40;;;9.00;99.90;;;;;;4201982;28;20491;-78
2023/01/05 11:10:31;;;;;;;12.10;2.63;;;9.00;99.90;;;;;;4198983;28;20213;-78
2023/01/05 11:12:34;;;;;;;9.83;2.90;;;9.10;99.90;;;;;;4197077;28;20206;-78
2023/01/05 11:14:42;;;;;;;12.17;3.43;;;9.20;99.90;;;;;;4200492;28;20200;-77
2023/01/05 11:16:51;;;;;;;11.37;2.77;;;9.20;99.90;;;;;;4202940;28;20709;-78
2023/01/05 11:18:56;;;;;;;5.77;2.70;;;9.20;99.90;;;;;;4201167;28;20205;-79
2023/01/05 11:21:15;;;;;;;10.30;2.80;;;9.20;99.90;;;;;;4199419;28;20200;-79